Time;durP1;ratioP1;P1;durP2;ratioP2;P2;SDS_P1;SDS_P2;PMS_P1;PMS_P2;Temp;Humidity;BMP_temperature;BMP_pressure;BME280_temperature;BME280_humidity;BME280_pressure;Samples;Min_cycle;Max_cycle;Signal;HPM_P1;HPM_P2
2021/12/02 00:01:49;;;;;;;4.70;3.38;;;;;;;16.68;43.83;93861.88;10649224;27;20050;-83
2021/12/02 00:06:50;;;;;;;3.90;3.55;;;;;;;16.68;43.75;93863.69;10667063;27;20526;-82
2021/12/02 00:11:52;;;;;;;4.20;3.47;;;;;;;16.69;43.58;93875.69;10648477;27;20457;-83
2021/12/02 00:22:02;;;;;;;3.78;3.40;;;;;;;16.68;42.99;93855.88;10649435;27;20049;-84
2021/12/02 00:27:08;;;;;;;3.53;3.22;;;;;;;16.67;43.81;93862.91;10648073;27;20049;-83
2021/12/02 00:32:10;;;;;;;3.97;3.50;;;;;;;16.67;43.69;93856.91;10666258;27;20047;-83
2021/12/02 00:37:12;;;;;;;4.57;3.47;;;;;;;16.67;43.75;93857.72;10666141;27;20080;-85
2021/12/02 00:42:14;;;;;;;3.67;3.38;;;;;;;16.64;43.77;93858.22;10665838;27;20102;-83
2021/12/02 00:47:16;;;;;;;4.30;3.70;;;;;;;16.64;43.73;93865.25;10665273;27;20049;-83
2021/12/02 00:52:19;;;;;;;4.28;3.60;;;;;;;16.63;43.93;93879.28;10646800;27;20046;-83
2021/12/02 00:57:21;;;;;;;5.30;3.67;;;;;;;16.62;44.03;93870.69;10646626;27;20051;-82
2021/12/02 01:02:23;;;;;;;5.97;3.65;;;;;;;16.63;43.86;93874.84;10665297;27;20377;-81
2021/12/02 01:07:26;;;;;;;3.75;3.30;;;;;;;16.61;43.88;93870.94;10646413;27;20508;-81
2021/12/02 01:12:28;;;;;;;3.72;3.42;;;;;;;16.60;43.81;93875.34;10646657;27;20046;-82
2021/12/02 01:17:29;;;;;;;5.15;3.63;;;;;;;16.60;43.63;93872.75;10646311;27;20394;-82
2021/12/02 01:22:36;;;;;;;3.95;3.55;;;;;;;16.61;43.82;93868.34;10665138;27;20031;-84
2021/12/02 01:27:40;;;;;;;4.10;3.45;;;;;;;16.61;43.87;93870.94;10628720;27;20065;-81
2021/12/02 01:32:45;;;;;;;4.32;3.50;;;;;;;16.60;43.78;93869.38;10646396;27;20035;-82
2021/12/02 01:37:47;;;;;;;3.83;3.30;;;;;;;16.59;43.90;93868.59;10664560;27;20088;-79
2021/12/02 01:42:53;;;;;;;3.53;2.90;;;;;;;16.57;43.85;93859.44;10664508;27;20035;-81
2021/12/02 01:47:57;;;;;;;3.80;3.10;;;;;;;16.56;43.82;93850.03;10645648;27;20042;-83
2021/12/02 01:53:00;;;;;;;3.35;3.05;;;;;;;16.55;43.88;93853.69;10664345;27;20050;-83
2021/12/02 01:58:05;;;;;;;3.92;3.38;;;;;;;16.55;43.89;93849.28;10645470;27;20047;-82
2021/12/02 02:03:07;;;;;;;2.80;2.50;;;;;;;16.55;43.94;93853.69;10652022;27;20073;-83
2021/12/02 02:08:18;;;;;;;3.88;2.90;;;;;;;16.53;44.00;93856.56;10672422;27;20446;-81
2021/12/02 02:13:20;;;;;;;3.28;2.97;;;;;;;16.52;44.05;93849.75;10672388;27;20058;-81
2021/12/02 02:18:24;;;;;;;3.70;2.97;;;;;;;16.52;43.85;93849.75;10672375;27;20064;-80
2021/12/02 02:23:29;;;;;;;3.15;2.85;;;;;;;16.52;43.85;93856.81;10675836;27;20050;-82
2021/12/02 02:28:31;;;;;;;4.00;3.08;;;;;;;16.50;43.87;93852.63;10664101;27;20050;-82
2021/12/02 02:33:36;;;;;;;3.30;3.00;;;;;;;16.50;43.96;93852.63;10672534;27;20053;-81
2021/12/02 02:38:38;;;;;;;3.28;2.90;;;;;;;16.48;43.80;93857.28;10671346;27;20043;-83
2021/12/02 02:43:48;;;;;;;3.10;2.80;;;;;;;16.49;43.95;93866.66;10652812;27;20043;-84
2021/12/02 02:48:49;;;;;;;4.95;2.92;;;;;;;16.48;43.98;93861.69;10652338;27;20038;-84
2021/12/02 02:53:56;;;;;;;3.03;2.55;;;;;;;16.48;43.70;93857.28;10670554;27;20093;-86
2021/12/02 03:04:44;;;;;;;3.10;2.83;;;;;;;16.48;43.97;93857.28;10670027;27;20057;-85
2021/12/02 03:09:58;;;;;;;2.95;2.63;;;;;;;16.49;43.95;93868.50;10637587;27;20031;-85
2021/12/02 03:20:05;;;;;;;2.92;2.60;;;;;;;16.47;43.79;93899.97;10669542;27;20057;-83
2021/12/02 03:25:08;;;;;;;2.65;2.45;;;;;;;16.46;43.80;93908.84;10669191;27;20055;-84
2021/12/02 03:30:10;;;;;;;3.35;2.60;;;;;;;16.44;43.99;93910.88;10668516;27;20042;-81
2021/12/02 03:35:12;;;;;;;3.35;3.05;;;;;;;16.44;44.09;93921.31;10668531;27;20043;-82
2021/12/02 03:40:15;;;;;;;2.97;2.65;;;;;;;16.42;43.88;93920.78;10650266;27;20087;-82
2021/12/02 03:45:17;;;;;;;3.47;2.83;;;;;;;16.42;44.01;93927.81;10649779;27;20050;-83
2021/12/02 03:50:19;;;;;;;2.60;2.40;;;;;;;16.40;44.55;93916.84;10649915;27;20054;-81
2021/12/02 03:55:24;;;;;;;2.80;2.53;;;;;;;16.39;44.04;93920.50;10649266;27;20050;-82
2021/12/02 04:00:26;;;;;;;3.10;2.70;;;;;;;16.39;44.18;93915.28;10649277;27;20441;-82
2021/12/02 04:05:27;;;;;;;2.70;2.38;;;;;;;16.36;44.13;93908.72;10667211;27;20078;-80
2021/12/02 04:10:31;;;;;;;2.75;2.55;;;;;;;16.36;44.11;93906.13;10667040;27;20042;-84
2021/12/02 04:15:36;;;;;;;2.72;2.35;;;;;;;16.35;44.07;93903.78;10666929;27;20495;-81
2021/12/02 04:20:38;;;;;;;2.97;2.65;;;;;;;16.32;44.27;93905.03;10648189;27;20054;-84
2021/12/02 04:25:41;;;;;;;2.67;2.45;;;;;;;16.30;44.23;93905.31;10665999;27;20050;-83
2021/12/02 04:30:42;;;;;;;2.90;2.60;;;;;;;16.30;44.36;93900.09;10666072;27;20050;-83
2021/12/02 04:35:44;;;;;;;2.25;2.05;;;;;;;16.31;44.10;93903.47;10647731;27;20561;-82
2021/12/02 04:40:46;;;;;;;2.40;2.20;;;;;;;16.31;44.11;93896.44;10647550;27;20042;-82
2021/12/02 04:45:48;;;;;;;2.53;2.33;;;;;;;16.30;44.22;93892.28;10630226;27;20055;-82
2021/12/02 04:50:51;;;;;;;2.70;2.30;;;;;;;16.30;44.19;93901.91;10647091;27;20042;-82
2021/12/02 04:55:53;;;;;;;2.30;2.10;;;;;;;16.28;44.25;93899.53;10646990;27;20035;-83
2021/12/02 05:00:55;;;;;;;2.17;1.98;;;;;;;16.28;44.35;93899.53;10665327;27;20047;-86
2021/12/02 05:05:56;;;;;;;2.40;2.20;;;;;;;16.28;44.19;93904.75;10646471;27;20042;-84
2021/12/02 05:10:58;;;;;;;2.20;2.00;;;;;;;16.28;44.11;93902.16;10646764;27;20030;-83
2021/12/02 05:16:00;;;;;;;5.10;2.20;;;;;;;16.29;44.21;93900.34;10664643;27;20120;-84
2021/12/02 05:21:02;;;;;;;3.05;2.30;;;;;;;16.26;44.30;93898.22;10664992;27;20042;-86
2021/12/02 05:26:04;;;;;;;2.72;2.20;;;;;;;16.25;44.36;93902.63;10646200;27;20050;-84
2021/12/02 05:31:05;;;;;;;2.47;2.03;;;;;;;16.25;44.34;93899.25;10646125;27;20054;-83
2021/12/02 05:36:07;;;;;;;2.35;2.15;;;;;;;16.25;44.39;93904.47;10649271;27;20091;-85
2021/12/02 05:41:10;;;;;;;2.00;1.90;;;;;;;16.24;44.51;93900.28;10673676;27;20039;-82
2021/12/02 05:46:11;;;;;;;2.67;2.17;;;;;;;16.24;44.17;93900.28;10673016;27;20563;-83
2021/12/02 05:51:13;;;;;;;2.03;1.88;;;;;;;16.23;44.16;93901.31;10673143;27;20059;-86
2021/12/02 05:56:15;;;;;;;2.10;1.90;;;;;;;16.23;44.36;93896.91;10672670;27;20369;-81
2021/12/02 06:01:16;;;;;;;2.20;2.00;;;;;;;16.25;44.28;93894.03;10672827;27;20039;-84
2021/12/02 06:06:18;;;;;;;1.70;1.60;;;;;;;16.23;44.20;93893.50;10672325;27;20384;-84
2021/12/02 06:11:20;;;;;;;1.90;1.80;;;;;;;16.21;44.37;93895.56;10672013;27;20035;-84
2021/12/02 06:16:22;;;;;;;2.00;1.80;;;;;;;16.20;44.26;93901.81;10671705;27;20500;-82
2021/12/02 06:21:23;;;;;;;2.55;2.20;;;;;;;16.20;44.32;93896.59;10671827;27;20496;-80
2021/12/02 06:26:25;;;;;;;2.08;1.88;;;;;;;16.19;44.18;93884.59;10671196;27;20044;-82
2021/12/02 06:31:27;;;;;;;1.95;1.77;;;;;;;16.20;44.40;93897.38;10650541;27;20051;-85
2021/12/02 06:36:28;;;;;;;1.90;1.58;;;;;;;16.19;44.35;93900.22;10649472;27;20408;-84
2021/12/02 06:41:33;;;;;;;2.15;1.80;;;;;;;16.19;44.51;93911.41;10632896;27;20039;-87
2021/12/02 06:46:35;;;;;;;1.80;1.70;;;;;;;16.19;44.30;93919.22;10667295;27;20047;-87
2021/12/02 06:51:37;;;;;;;1.83;1.60;;;;;;;16.20;44.30;93922.63;10667773;27;20070;-87
2021/12/02 06:56:39;;;;;;;1.75;1.63;;;;;;;16.20;44.50;93935.66;10649399;27;20034;-85
2021/12/02 07:01:40;;;;;;;1.60;1.50;;;;;;;16.20;44.45;93933.03;10667570;27;20039;-86
2021/12/02 07:06:44;;;;;;;1.60;1.50;;;;;;;16.21;44.14;93935.41;10632395;27;20085;-86
2021/12/02 07:11:45;;;;;;;1.80;1.65;;;;;;;16.23;44.33;93945.56;10649207;27;20050;-87
2021/12/02 07:16:49;;;;;;;2.15;1.70;;;;;;;16.23;43.92;93943.75;10667345;27;20480;-83
2021/12/02 07:21:50;;;;;;;1.70;1.60;;;;;;;16.23;44.28;93940.38;10648182;27;20049;-82
2021/12/02 07:26:52;;;;;;;1.67;1.58;;;;;;;16.24;44.59;93949.72;10637353;27;20050;-84
2021/12/02 07:31:55;;;;;;;4.78;1.42;;;;;;;16.23;44.40;93945.56;10667070;27;20046;-84
2021/12/02 07:36:57;;;;;;;2.78;1.40;;;;;;;16.24;44.44;93949.72;10667547;27;20364;-80
2021/12/02 07:41:59;;;;;;;2.67;1.27;;;;;;;16.25;44.46;93956.53;10649149;27;20042;-81
2021/12/02 07:47:02;;;;;;;1.75;1.33;;;;;;;16.26;44.31;93950.31;10666252;27;20123;-81
2021/12/02 07:52:05;;;;;;;5.97;1.58;;;;;;;16.28;44.47;93954.22;10665748;27;20035;-82
2021/12/02 07:57:10;;;;;;;2.15;1.70;;;;;;;16.31;44.46;93952.94;10658458;27;20038;-81
2021/12/02 08:02:16;;;;;;;5.60;1.30;;;;;;;16.36;44.28;93954.81;10646206;27;20142;-80
2021/12/02 08:07:18;;;;;;;2.20;1.30;;;;;;;16.40;44.23;93953.28;10659487;27;20039;-80
2021/12/02 08:12:19;;;;;;;1.90;1.40;;;;;;;16.44;44.07;93946.56;10665866;27;20051;-80
2021/12/02 08:17:21;;;;;;;2.75;1.42;;;;;;;16.49;43.96;93939.56;10665868;27;20030;-81
2021/12/02 08:22:23;;;;;;;3.00;1.25;;;;;;;16.54;43.85;93954.47;10665775;27;20039;-82
2021/12/02 08:27:25;;;;;;;4.93;1.85;;;;;;;16.62;43.50;93950.63;10629859;27;20043;-83
2021/12/02 08:32:26;;;;;;;4.35;1.40;;;;;;;16.68;43.51;93950.44;10638010;27;20051;-79
2021/12/02 08:37:30;;;;;;;2.92;1.33;;;;;;;16.72;43.34;93940.34;10620757;27;20047;-82
2021/12/02 08:42:32;;;;;;;1.70;1.40;;;;;;;16.78;43.12;93933.31;10621343;27;20444;-81
2021/12/02 08:47:36;;;;;;;1.70;1.27;;;;;;;16.83;43.03;93928.97;10615078;27;20433;-82
2021/12/02 08:52:38;;;;;;;1.23;1.23;;;;;;;16.91;42.80;93937.38;10622283;27;20100;-79
2021/12/02 08:57:39;;;;;;;2.33;1.50;;;;;;;16.95;42.73;93930.66;10621863;27;20104;-82
2021/12/02 09:02:41;;;;;;;1.70;1.45;;;;;;;17.01;42.42;93932.25;10621582;27;20039;-81
2021/12/02 09:07:43;;;;;;;2.72;1.60;;;;;;;17.03;42.52;93932.78;10620241;27;20043;-81
2021/12/02 09:12:50;;;;;;;3.45;1.67;;;;;;;17.03;42.48;93930.19;10620511;27;20039;-83
2021/12/02 09:17:51;;;;;;;3.15;1.58;;;;;;;17.03;42.57;93949.19;10619416;27;20051;-82
2021/12/02 09:22:53;;;;;;;3.83;1.48;;;;;;;17.03;42.50;93936.16;10602500;27;20473;-80
2021/12/02 09:27:55;;;;;;;4.10;1.48;;;;;;;17.01;42.46;93940.84;10622894;27;20068;-82
2021/12/02 09:32:57;;;;;;;1.50;1.38;;;;;;;17.06;42.55;93944.53;10643813;27;20058;-79
2021/12/02 09:37:58;;;;;;;1.65;1.55;;;;;;;17.10;42.40;93943.81;10644586;27;20050;-81
2021/12/02 09:43:02;;;;;;;2.60;1.40;;;;;;;17.09;42.25;93942.22;10663173;27;20070;-80
2021/12/02 09:48:04;;;;;;;2.25;1.92;;;;;;;17.10;42.31;93938.59;10643955;27;20042;-82
2021/12/02 09:53:09;;;;;;;2.17;1.50;;;;;;;17.11;42.28;93924.50;10663353;27;20046;-79
2021/12/02 09:58:18;;;;;;;2.25;1.73;;;;;;;17.13;42.38;93929.47;10644248;27;20050;-81
2021/12/02 10:03:29;;;;;;;1.90;1.77;;;;;;;17.11;42.32;93918.50;10662604;27;20476;-81
2021/12/02 10:08:37;;;;;;;3.40;2.10;;;;;;;17.43;42.85;93921.06;10663198;27;20042;-82
2021/12/02 10:13:58;;;;;;;1.75;1.65;;;;;;;17.72;42.57;93913.66;10643772;27;20112;-83
2021/12/02 10:19:10;;;;;;;4.70;1.88;;;;;;;17.99;42.44;93909.34;10662747;27;20039;-83
2021/12/02 10:24:23;;;;;;;2.20;1.83;;;;;;;18.23;41.97;93901.84;10651165;27;20088;-80
2021/12/02 10:29:33;;;;;;;1.88;1.77;;;;;;;18.40;41.81;93899.78;10642913;27;20046;-81
2021/12/02 10:34:53;;;;;;;1.52;1.42;;;;;;;18.56;41.77;93899.81;10669221;27;20045;-82
2021/12/02 10:40:10;;;;;;;1.80;1.70;;;;;;;18.63;41.55;93882.84;10667758;27;20047;-82
2021/12/02 10:45:29;;;;;;;2.88;1.52;;;;;;;18.75;41.43;93889.66;10668990;27;20091;-82
2021/12/02 10:50:37;;;;;;;3.47;2.25;;;;;;;18.84;41.37;93886.28;10663868;27;20038;-82
2021/12/02 10:55:39;;;;;;;5.57;2.05;;;;;;;18.99;40.81;93888.13;10669555;27;20050;-81
2021/12/02 11:00:44;;;;;;;2.10;1.90;;;;;;;19.12;40.39;93868.50;10650513;27;20054;-81
2021/12/02 11:05:50;;;;;;;1.88;1.77;;;;;;;19.20;40.37;93862.72;10668826;27;20061;-81
2021/12/02 11:11:00;;;;;;;3.45;2.10;;;;;;;19.29;39.96;93854.31;10650728;27;20043;-84
2021/12/02 11:16:10;;;;;;;2.90;2.08;;;;;;;19.34;39.96;93849.06;10669537;27;20373;-80
2021/12/02 11:22:16;;;;;;;3.90;2.00;;;;;;;19.36;40.38;93853.00;10656182;27;20043;-82
2021/12/02 11:27:23;;;;;;;4.97;2.58;;;;;;;19.37;41.19;93849.31;10632585;27;20047;-79
2021/12/02 11:32:31;;;;;;;4.53;2.53;;;;;;;19.42;41.08;93848.53;10665837;27;20051;-82
2021/12/02 11:37:36;;;;;;;6.95;3.00;;;;;;;19.47;41.01;93847.72;10667698;27;20046;-83
2021/12/02 11:49:16;;;;;;;4.07;2.97;;;;;;;19.61;40.30;93830.41;10478589;28;20049;-83
2021/12/02 11:54:18;;;;;;;4.20;2.60;;;;;;;19.68;40.11;93824.91;10490687;28;20040;-81
2021/12/02 11:59:23;;;;;;;5.45;2.22;;;;;;;19.66;40.00;93821.75;10506685;28;20567;-78
2021/12/02 12:04:24;;;;;;;3.25;2.63;;;;;;;19.64;40.05;93827.25;10495454;28;20493;-79
2021/12/02 12:09:26;;;;;;;7.20;2.78;;;;;;;19.66;39.78;93827.00;10571676;27;20055;-81
2021/12/02 12:14:42;;;;;;;7.53;2.80;;;;;;;19.72;39.56;93815.44;10665496;27;20058;-75
2021/12/02 12:19:46;;;;;;;4.63;2.67;;;;;;;19.79;39.56;93812.56;10647134;27;20039;-79
2021/12/02 12:24:49;;;;;;;9.77;2.95;;;;;;;19.84;39.39;93807.31;10664360;27;20046;-77
2021/12/02 12:30:00;;;;;;;8.63;2.72;;;;;;;19.86;39.30;93813.06;10661362;27;20057;-76
2021/12/02 12:40:41;;;;;;;11.25;2.78;;;;;;;19.70;39.54;93807.09;10662180;27;20487;-76
2021/12/02 12:45:43;;;;;;;6.50;2.85;;;;;;;19.65;39.66;93818.34;10662695;27;20045;-77
2021/12/02 12:50:47;;;;;;;9.88;2.53;;;;;;;19.62;39.85;93808.44;10662521;27;20030;-76
2021/12/02 12:55:50;;;;;;;11.98;2.75;;;;;;;19.60;39.43;93805.31;10664184;27;20049;-82
2021/12/02 13:00:58;;;;;;;10.43;2.40;;;;;;;19.56;39.76;93807.66;10661775;27;20115;-76
2021/12/02 13:06:10;;;;;;;9.38;3.30;;;;;;;19.50;40.02;93810.56;10662567;27;20039;-77
2021/12/02 13:11:20;;;;;;;6.53;3.08;;;;;;;19.50;40.01;93802.72;10637982;27;20408;-78
2021/12/02 13:16:22;;;;;;;10.80;3.47;;;;;;;19.44;39.88;93806.41;10660251;27;20464;-78
2021/12/02 13:21:28;;;;;;;5.60;2.90;;;;;;;19.36;40.32;93805.13;10644597;27;20031;-78
2021/12/02 13:26:38;;;;;;;5.47;2.88;;;;;;;19.34;40.67;93807.22;10662363;27;20139;-77
2021/12/02 13:31:46;;;;;;;12.48;2.88;;;;;;;19.28;40.59;93800.44;10661526;27;20053;-77
2021/12/02 13:36:53;;;;;;;10.18;2.80;;;;;;;19.21;40.50;93798.09;10662345;27;20448;-77
2021/12/02 13:42:11;;;;;;;4.53;2.60;;;;;;;19.16;40.66;93795.50;10662862;27;20050;-77
2021/12/02 13:47:20;;;;;;;7.32;2.70;;;;;;;19.14;40.73;93797.63;10662674;27;20050;-77
2021/12/02 13:52:31;;;;;;;10.48;3.00;;;;;;;19.10;40.74;93802.56;10660896;27;20051;-76
2021/12/02 13:57:46;;;;;;;6.28;2.50;;;;;;;19.07;40.90;93799.72;10664852;27;20031;-76
2021/12/02 14:03:00;;;;;;;5.82;3.00;;;;;;;18.97;41.08;93803.91;10650761;27;20055;-71
2021/12/02 14:08:08;;;;;;;12.10;3.10;;;;;;;18.93;42.96;93805.50;10650431;27;20035;-79
2021/12/02 14:13:13;;;;;;;4.38;2.78;;;;;;;18.85;42.46;93817.28;10645419;27;20039;-80
2021/12/02 14:18:22;;;;;;;4.38;2.50;;;;;;;18.76;42.54;93815.44;10671544;27;20039;-79
2021/12/02 14:23:50;;;;;;;5.43;2.70;;;;;;;18.67;42.51;93826.41;10669050;27;20050;-81
2021/12/02 14:28:54;;;;;;;4.55;2.42;;;;;;;18.59;42.46;93828.75;10671241;27;20061;-80
2021/12/02 14:34:03;;;;;;;4.53;2.45;;;;;;;18.51;42.64;93840.50;10671008;27;20043;-79
2021/12/02 14:39:10;;;;;;;5.43;2.40;;;;;;;18.46;42.35;93853.56;10652230;27;20441;-80
2021/12/02 14:44:18;;;;;;;2.80;2.00;;;;;;;18.35;41.41;93886.72;10651927;27;20039;-80
2021/12/02 14:49:33;;;;;;;3.83;2.20;;;;;;;18.29;42.00;93893.78;10670165;27;20057;-80
2021/12/02 14:55:09;;;;;;;3.42;1.73;;;;;;;18.23;42.21;93907.06;10670300;27;20118;-79
2021/12/02 15:00:18;;;;;;;6.50;2.00;;;;;;;18.17;42.02;93915.94;10644200;27;20046;-80
2021/12/02 15:05:23;;;;;;;2.65;1.83;;;;;;;18.10;42.28;93913.56;10669581;27;20046;-79
2021/12/02 15:10:30;;;;;;;7.75;2.35;;;;;;;18.03;42.48;93931.31;10669338;27;20073;-80
2021/12/02 15:15:32;;;;;;;4.90;2.30;;;;;;;17.98;42.45;93936.50;10669300;27;20198;-79
2021/12/02 15:20:36;;;;;;;3.15;2.28;;;;;;;17.90;42.80;93948.22;10650398;27;20049;-80
2021/12/02 15:25:45;;;;;;;3.50;2.20;;;;;;;17.84;42.68;93955.19;10667902;27;20042;-80
2021/12/02 15:31:00;;;;;;;3.67;2.15;;;;;;;17.79;42.84;93959.63;10668574;27;20081;-80
2021/12/02 15:36:16;;;;;;;2.13;1.77;;;;;;;17.72;42.29;93980.69;10668606;27;20126;-79
2021/12/02 15:41:20;;;;;;;4.13;2.00;;;;;;;17.64;42.95;93976.75;10668535;27;20043;-79
2021/12/02 15:46:27;;;;;;;4.03;2.10;;;;;;;17.59;43.32;93990.56;10668054;27;20054;-79
2021/12/02 15:51:31;;;;;;;5.03;1.85;;;;;;;17.52;43.21;93989.97;10649307;27;20388;-80
2021/12/02 15:56:33;;;;;;;2.22;1.58;;;;;;;17.48;43.48;93980.28;10667687;27;20038;-78
2021/12/02 16:01:41;;;;;;;2.35;1.90;;;;;;;17.44;43.56;93992.28;10667612;27;20361;-78
2021/12/02 16:06:49;;;;;;;3.47;1.95;;;;;;;17.38;43.74;94010.47;10667398;27;20133;-78
2021/12/02 16:17:11;;;;;;;3.55;1.80;;;;;;;17.29;43.89;94032.84;10666851;27;20039;-80
2021/12/02 16:22:14;;;;;;;2.50;1.80;;;;;;;17.23;43.93;94044.28;10647577;27;20046;-79
2021/12/02 16:27:16;;;;;;;3.15;2.00;;;;;;;17.21;44.07;94051.53;10666618;27;20049;-79
2021/12/02 16:32:21;;;;;;;5.15;1.60;;;;;;;17.16;44.23;94062.69;10665994;27;20381;-79
2021/12/02 16:37:23;;;;;;;2.35;1.90;;;;;;;17.13;44.34;94073.66;10666098;27;20038;-79
2021/12/02 16:42:24;;;;;;;1.80;1.65;;;;;;;17.10;44.70;94081.97;10630160;27;20502;-79
2021/12/02 16:47:27;;;;;;;3.67;1.83;;;;;;;17.08;44.41;94070.97;10665840;27;20095;-80
2021/12/02 16:52:28;;;;;;;2.20;1.55;;;;;;;17.05;44.30;94076.69;10665815;27;20049;-80
2021/12/02 16:57:30;;;;;;;1.90;1.48;;;;;;;17.03;44.45;94073.53;10646643;27;20062;-79
2021/12/02 17:02:32;;;;;;;2.00;1.50;;;;;;;17.00;44.50;94085.22;10646540;27;20043;-80
2021/12/02 17:07:34;;;;;;;1.58;1.48;;;;;;;16.98;44.56;94089.13;10646550;27;20042;-80
2021/12/02 17:12:36;;;;;;;2.95;1.70;;;;;;;16.95;44.79;94095.63;10646137;27;20047;-80
2021/12/02 17:17:38;;;;;;;1.60;1.50;;;;;;;16.92;44.70;94096.09;10664624;27;20062;-80
2021/12/02 17:22:40;;;;;;;3.10;1.85;;;;;;;16.90;44.74;94108.59;10664463;27;20042;-79
2021/12/02 17:27:42;;;;;;;1.75;1.60;;;;;;;16.90;44.73;94118.25;10664112;27;20368;-80
2021/12/02 17:32:43;;;;;;;1.58;1.48;;;;;;;16.88;44.76;94128.91;10652371;27;20046;-81
2021/12/02 17:37:46;;;;;;;3.10;1.50;;;;;;;16.88;44.50;94143.72;10673330;27;20050;-80
2021/12/02 17:42:50;;;;;;;2.08;1.50;;;;;;;16.85;44.68;94151.00;10654577;27;20492;-80
2021/12/02 17:47:53;;;;;;;1.55;1.40;;;;;;;16.82;44.88;94164.50;10672827;27;20061;-80
2021/12/02 17:52:54;;;;;;;2.35;1.50;;;;;;;16.80;44.84;94171.00;10672651;27;20075;-79
2021/12/02 17:57:57;;;;;;;1.77;1.48;;;;;;;16.81;44.85;94180.38;10653780;27;20431;-80
2021/12/02 18:02:59;;;;;;;1.50;1.35;;;;;;;16.76;44.96;94199.34;10672382;27;20099;-80
2021/12/02 18:08:02;;;;;;;1.20;1.15;;;;;;;16.77;45.15;94200.91;10653742;27;20062;-79
2021/12/02 18:13:04;;;;;;;1.60;1.50;;;;;;;16.73;44.91;94215.44;10671961;27;20062;-78
2021/12/02 18:18:11;;;;;;;1.55;1.45;;;;;;;16.72;44.88;94226.09;10671480;27;20425;-78
2021/12/02 18:23:12;;;;;;;1.75;1.40;;;;;;;16.68;44.95;94238.84;10653044;27;20039;-79
2021/12/02 18:28:14;;;;;;;1.27;1.20;;;;;;;16.66;45.12;94261.75;10652749;27;20059;-79
2021/12/02 18:33:23;;;;;;;1.35;1.25;;;;;;;16.63;45.11;94270.03;10653947;27;20071;-79
2021/12/02 18:38:25;;;;;;;1.23;1.23;;;;;;;16.62;45.17;94277.06;10670789;27;20041;-78
2021/12/02 18:43:31;;;;;;;1.40;1.30;;;;;;;16.58;45.21;94288.97;10651210;27;20043;-79
2021/12/02 18:48:34;;;;;;;2.58;1.30;;;;;;;16.59;45.13;94300.19;10652216;27;20038;-79
2021/12/02 18:53:35;;;;;;;1.50;1.40;;;;;;;16.59;45.16;94300.19;10670391;27;20123;-79
2021/12/02 18:58:37;;;;;;;1.90;1.42;;;;;;;16.58;45.30;94311.63;10652204;27;20038;-79
2021/12/02 19:03:41;;;;;;;1.98;1.30;;;;;;;16.55;45.10;94320.69;10651412;27;20051;-79
2021/12/02 19:09:21;;;;;;;1.42;1.33;;;;;;;16.55;45.10;94317.31;10669631;27;20105;-79
2021/12/02 19:30:15;;;;;;;1.52;1.42;;;;;;;16.52;45.26;94342.00;10649847;27;20083;-79
2021/12/02 19:35:17;;;;;;;1.38;1.27;;;;;;;16.52;45.34;94349.03;10668543;27;20058;-79
2021/12/02 19:40:29;;;;;;;1.30;1.20;;;;;;;16.52;45.19;94346.44;10668341;27;20047;-79
2021/12/02 19:45:31;;;;;;;1.27;1.17;;;;;;;16.51;45.25;94356.06;10668109;27;20118;-79
2021/12/02 19:50:33;;;;;;;1.50;1.40;;;;;;;16.50;45.30;94364.91;10649155;27;20181;-79
2021/12/02 19:55:35;;;;;;;1.13;1.10;;;;;;;16.49;45.05;94378.94;10666853;27;20038;-79
2021/12/02 20:00:37;;;;;;;1.63;1.23;;;;;;;16.48;45.26;94377.34;10667826;27;20099;-80
2021/12/02 20:05:38;;;;;;;1.10;1.10;;;;;;;16.47;45.13;94396.63;10667427;27;20039;-80
2021/12/02 20:10:47;;;;;;;1.10;1.10;;;;;;;16.46;45.38;94405.47;10667242;27;20046;-80
2021/12/02 20:15:57;;;;;;;1.20;1.13;;;;;;;16.45;45.23;94402.06;10666731;27;20035;-79
2021/12/02 20:20:59;;;;;;;1.15;1.05;;;;;;;16.42;45.17;94425.19;10648173;27;20475;-79
2021/12/02 20:26:03;;;;;;;1.38;1.27;;;;;;;16.42;45.00;94433.78;10647764;27;20377;-80
2021/12/02 20:31:05;;;;;;;1.02;1.02;;;;;;;16.41;45.25;94449.66;10666058;27;20047;-79
2021/12/02 20:36:07;;;;;;;1.30;1.20;;;;;;;16.39;45.34;94452.47;10665956;27;20050;-80
2021/12/02 20:41:09;;;;;;;1.23;1.13;;;;;;;16.36;45.33;94463.38;10665886;27;20050;-78
2021/12/02 20:46:12;;;;;;;1.25;1.17;;;;;;;16.34;45.23;94468.03;10647262;27;20070;-79
2021/12/02 20:51:15;;;;;;;1.20;1.10;;;;;;;16.32;45.60;94470.84;10665543;27;20073;-79
2021/12/02 20:56:20;;;;;;;0.80;0.80;;;;;;;16.31;45.46;94478.91;10665473;27;20042;-79
2021/12/02 21:01:22;;;;;;;1.23;1.08;;;;;;;16.29;45.50;94483.56;10647121;27;20545;-79
2021/12/02 21:06:25;;;;;;;1.17;1.17;;;;;;;16.28;45.38;94497.59;10664678;27;20039;-79
2021/12/02 21:11:31;;;;;;;1.40;1.30;;;;;;;16.26;45.53;94497.03;10665293;27;20047;-78
2021/12/02 21:16:34;;;;;;;1.15;1.13;;;;;;;16.25;45.41;94514.44;10665795;27;20585;-78
2021/12/02 21:21:36;;;;;;;1.00;1.00;;;;;;;16.24;45.32;94510.28;10665805;27;20047;-79
2021/12/02 21:26:38;;;;;;;1.00;1.00;;;;;;;16.23;45.64;94529.50;10647073;27;20043;-79
2021/12/02 21:31:39;;;;;;;1.20;1.10;;;;;;;16.24;45.61;94538.91;10647168;27;20058;-79
2021/12/02 21:36:52;;;;;;;0.90;0.90;;;;;;;16.23;45.54;94550.34;10665388;27;20043;-79
2021/12/02 21:41:54;;;;;;;0.98;0.98;;;;;;;16.24;45.29;94566.75;10629953;27;20099;-79
2021/12/02 21:46:55;;;;;;;1.20;1.10;;;;;;;16.22;45.42;94568.78;10665363;27;20047;-78
2021/12/02 21:51:58;;;;;;;1.15;1.05;;;;;;;16.23;45.57;94578.97;10665478;27;20042;-78
2021/12/02 21:57:00;;;;;;;0.90;0.90;;;;;;;16.22;45.50;94587.03;10647075;27;20042;-78
2021/12/02 22:02:05;;;;;;;0.82;0.82;;;;;;;16.21;45.69;94595.84;10665191;27;20079;-78
2021/12/02 22:07:08;;;;;;;0.95;0.95;;;;;;;16.22;45.70;94610.44;10646513;27;20137;-79
2021/12/02 22:12:10;;;;;;;1.10;1.10;;;;;;;16.19;45.63;94616.13;10664967;27;20039;-78
2021/12/02 22:17:15;;;;;;;1.00;1.00;;;;;;;16.19;45.72;94619.50;10648473;27;20062;-78
2021/12/02 22:22:16;;;;;;;0.90;0.90;;;;;;;16.19;45.51;94631.72;10654521;27;20129;-78
2021/12/02 22:27:20;;;;;;;0.93;0.93;;;;;;;16.14;45.70;94635.78;10672428;27;20045;-78
2021/12/02 22:32:21;;;;;;;0.88;0.88;;;;;;;16.14;45.50;94638.41;10654219;27;20047;-78
2021/12/02 22:37:30;;;;;;;1.00;1.00;;;;;;;16.15;45.45;94639.22;10672104;27;20043;-80
2021/12/02 22:42:32;;;;;;;0.82;0.82;;;;;;;16.15;45.52;94639.22;10671006;27;20054;-79
2021/12/02 22:47:33;;;;;;;0.90;0.90;;;;;;;16.13;45.71;94636.06;10670804;27;20043;-79
2021/12/02 22:52:35;;;;;;;0.77;0.77;;;;;;;16.11;45.69;94644.09;10652298;27;20049;-79
2021/12/02 22:57:37;;;;;;;0.98;0.95;;;;;;;16.11;45.58;94656.28;10670395;27;20043;-80
2021/12/02 23:02:38;;;;;;;0.80;0.80;;;;;;;16.09;45.61;94655.72;10670507;27;20039;-80
2021/12/02 23:07:41;;;;;;;0.80;0.80;;;;;;;16.08;45.71;94664.53;10651674;27;20449;-80
2021/12/02 23:12:43;;;;;;;0.82;0.82;;;;;;;16.07;45.62;94668.19;10669963;27;20039;-80
2021/12/02 23:17:45;;;;;;;0.88;0.88;;;;;;;16.04;45.65;94671.25;10670007;27;20039;-80
2021/12/02 23:22:50;;;;;;;0.93;0.93;;;;;;;16.02;45.95;94666.25;10669396;27;20129;-80
2021/12/02 23:33:11;;;;;;;0.70;0.70;;;;;;;15.98;45.97;94677.34;10669258;27;20095;-81
2021/12/02 23:38:13;;;;;;;0.90;0.90;;;;;;;15.96;45.86;94670.53;10668820;27;20057;-79
2021/12/02 23:43:15;;;;;;;0.80;0.80;;;;;;;15.94;45.80;94666.59;10668618;27;20087;-80
2021/12/02 23:48:17;;;;;;;0.88;0.88;;;;;;;15.94;46.02;94674.41;10668372;27;20445;-79
2021/12/02 23:53:20;;;;;;;0.70;0.70;;;;;;;15.92;46.10;94673.81;10668412;27;20060;-81
2021/12/02 23:58:22;;;;;;;0.80;0.80;;;;;;;15.91;46.05;94683.44;10667968;27;20049;-80
